KCKM/CKM METAR and TAF weather

Enter ICAO airport designator
Station Type Date Time Source
KCKM METAR 2019/08/22 03:15 UTC NOAA

KCKM 220315Z AUTO 00000KT 10SM 26/23 A3000 RMK A01


Station Type Date Time Source
KCKM Decoded METAR 2019/08/22 03:15 UTC NOAA

Station name not available
Aug 21, 2019 - 11:15 PM EDT / 2019.08.22 0315 UTC
Wind: Calm:0
Visibility: 10 mile(s):0
Temperature: 78 F (26 C)
Dew Point: 73 F (23 C)
Relative Humidity: 83%
Pressure (altimeter): 30 in. Hg (1015 hPa)
ob: KCKM 220315Z AUTO 00000KT 10SM 26/23 A3000 RMK A01
cycle: 3

Station Type Date Time Source
KCKM TAF UTC NOAA

Error!

Example: see airport list